createdAt,value
2018-11-22T12:18:01.142Z,12.50
2018-11-22T12:20:31.033Z,12.33
2018-11-22T12:23:00.969Z,12.65
2018-11-22T12:25:30.835Z,11.53
2018-11-22T12:28:01.941Z,12.18
2018-11-22T12:30:33.162Z,11.40
2018-11-22T12:33:39.951Z,13.03
2018-11-22T12:36:15.206Z,12.55
2018-11-22T12:38:45.719Z,13.43
2018-11-22T12:41:15.676Z,12.30
2018-11-22T12:43:45.458Z,11.65
2018-11-22T12:46:15.320Z,12.50
2018-11-22T12:48:45.249Z,12.05
2018-11-22T12:51:15.016Z,11.63
2018-11-22T12:53:44.811Z,11.08
2018-11-22T12:56:14.887Z,12.18
2018-11-22T12:58:44.753Z,12.82
2018-11-22T13:01:14.523Z,12.37
2018-11-22T13:03:44.376Z,13.85
2018-11-22T13:06:14.155Z,13.05
2018-11-22T13:08:44.051Z,13.48
2018-11-22T13:11:13.879Z,11.95
2018-11-22T13:13:43.754Z,11.88
2018-11-22T13:16:13.546Z,12.15
2018-11-22T13:18:43.432Z,12.13
2018-11-22T13:21:13.252Z,12.18
2018-11-22T13:23:43.099Z,13.45
2018-11-22T13:26:12.944Z,11.88
2018-11-22T13:28:42.839Z,13.20
2018-11-22T13:31:12.611Z,12.98
2018-11-22T13:33:42.756Z,11.97
2018-11-22T13:36:12.668Z,13.15
2018-11-22T13:38:42.643Z,12.80
2018-11-22T13:41:13.125Z,11.93
2018-11-22T13:43:42.995Z,12.75
2018-11-22T13:46:12.880Z,12.40
2018-11-22T13:48:42.767Z,12.78
2018-11-22T13:51:12.546Z,12.55
2018-11-22T13:53:42.339Z,13.03
2018-11-22T13:56:12.211Z,12.82
2018-11-22T13:58:41.979Z,13.15
2018-11-22T14:01:11.834Z,12.15
2018-11-22T14:03:41.590Z,13.35
2018-11-22T14:06:11.435Z,11.70
2018-11-22T14:08:41.219Z,11.60
2018-11-22T14:11:14.076Z,11.68
2018-11-22T14:13:41.003Z,12.35
2018-11-22T14:16:10.779Z,12.18
2018-11-22T14:18:40.586Z,11.90
2018-11-22T14:21:10.445Z,11.97
2018-11-22T14:23:40.223Z,11.70
2018-11-22T14:26:10.067Z,12.37
2018-11-22T14:28:39.843Z,11.55
2018-11-22T14:31:09.679Z,12.80
2018-11-22T14:33:39.471Z,12.55
2018-11-22T14:36:09.319Z,11.40
2018-11-22T14:38:39.123Z,12.58
2018-11-22T14:41:08.943Z,11.73
2018-11-22T14:43:38.723Z,11.08
2018-11-22T14:46:08.595Z,11.38
2018-11-22T14:48:38.348Z,11.30
2018-11-22T14:51:16.015Z,9.53
2018-11-22T14:53:45.879Z,9.27
2018-11-22T14:56:15.724Z,8.03
2018-11-22T14:58:45.592Z,8.53
2018-11-22T15:01:15.562Z,8.60
2018-11-22T15:03:45.454Z,8.20
2018-11-22T15:06:15.267Z,8.07
2018-11-22T15:08:45.055Z,7.33
2018-11-22T15:11:14.910Z,7.73
2018-11-22T15:13:44.683Z,7.30
2018-11-22T15:16:14.511Z,8.50
2018-11-22T15:18:44.324Z,9.53
2018-11-22T15:21:14.240Z,9.50
2018-11-22T15:23:44.016Z,8.20
2018-11-22T15:26:13.971Z,12.77
2018-11-22T15:28:43.755Z,13.20
2018-11-22T15:31:13.903Z,12.23
2018-11-22T15:33:43.743Z,14.43
2018-11-22T15:36:14.119Z,14.53
2018-11-22T15:38:43.939Z,14.90
2018-11-22T15:41:13.874Z,14.17
2018-11-22T15:43:43.819Z,13.23
2018-11-22T15:46:13.947Z,14.00
2018-11-22T15:48:43.735Z,13.83
2018-11-22T15:51:13.939Z,14.70
2018-11-22T15:53:43.763Z,15.33
2018-11-22T15:56:13.579Z,16.07
2018-11-22T15:58:43.363Z,15.63
2018-11-22T16:01:13.351Z,16.43
2018-11-22T16:03:43.127Z,14.93
2018-11-22T16:06:13.046Z,15.63
2018-11-22T16:08:42.911Z,15.10
2018-11-22T16:11:14.891Z,15.73
2018-11-22T16:13:42.660Z,16.93
2018-11-22T16:16:12.542Z,15.17
2018-11-22T16:18:42.884Z,14.53
2018-11-22T16:21:12.747Z,16.33
2018-11-22T16:23:42.720Z,14.47
2018-11-22T16:26:16.528Z,16.67
2018-11-22T16:28:48.530Z,16.67
2018-11-22T16:31:19.854Z,15.47
2018-11-22T16:33:50.608Z,14.87
2018-11-22T16:36:23.080Z,15.10
2018-11-22T16:38:55.580Z,15.50
2018-11-22T16:41:27.720Z,16.73
2018-11-22T16:44:03.244Z,15.27
2018-11-22T16:46:30.246Z,15.83
2018-11-22T16:49:01.410Z,16.53
2018-11-22T16:51:33.374Z,18.73
2018-11-22T16:54:05.365Z,16.80
2018-11-22T16:56:35.811Z,16.53
2018-11-22T16:59:06.004Z,16.20
2018-11-22T17:01:35.832Z,16.40
2018-11-22T17:04:05.646Z,17.37
2018-11-22T17:06:35.467Z,16.13
2018-11-22T17:09:08.519Z,17.27
2018-11-22T17:11:39.343Z,17.00
2018-11-22T17:14:09.159Z,17.37
2018-11-22T17:16:39.049Z,16.47
2018-11-22T17:19:09.042Z,16.80
2018-11-22T17:21:39.023Z,16.57
2018-11-22T17:24:08.884Z,18.57
2018-11-22T17:26:38.947Z,17.03
2018-11-22T17:29:08.826Z,17.73
2018-11-22T17:31:38.723Z,16.43
2018-11-22T17:34:08.516Z,18.73
2018-11-22T17:36:38.495Z,20.77
2018-11-22T17:39:12.539Z,18.73
2018-11-22T17:41:42.881Z,17.37
2018-11-22T17:44:12.820Z,18.83
2018-11-22T17:46:43.007Z,41.13
2018-11-22T17:49:12.896Z,48.80
2018-11-22T17:51:42.856Z,31.93
2018-11-22T17:54:12.941Z,22.50
2018-11-22T17:56:42.967Z,19.33
2018-11-22T17:59:13.709Z,19.60
2018-11-22T18:01:44.443Z,21.03
2018-11-22T18:04:14.432Z,18.57
2018-11-22T18:06:44.593Z,18.17
2018-11-22T18:09:15.184Z,17.83
2018-11-22T18:11:45.562Z,17.53
2018-11-22T18:14:15.391Z,18.90
2018-11-22T18:16:47.731Z,16.97
2018-11-22T18:19:20.420Z,17.77
2018-11-22T18:21:52.771Z,18.97
2018-11-22T18:24:26.168Z,19.07
2018-11-22T18:26:57.438Z,18.53
2018-11-22T18:29:29.883Z,17.93
2018-11-22T18:32:01.972Z,18.50
2018-11-22T18:34:34.420Z,20.23
2018-11-22T18:37:06.648Z,19.40
2018-11-22T18:39:38.225Z,19.23
2018-11-22T18:42:08.296Z,21.17
2018-11-22T18:44:38.826Z,18.40
2018-11-22T18:47:09.974Z,19.10
2018-11-22T18:49:41.623Z,17.73
2018-11-22T18:52:14.516Z,17.93
2018-11-22T18:54:46.571Z,17.67
2018-11-22T18:57:17.619Z,19.77
2018-11-22T18:59:49.674Z,17.90
2018-11-22T19:02:20.785Z,18.67
2018-11-22T19:04:51.843Z,17.30
2018-11-22T19:07:25.130Z,17.37
2018-11-22T19:09:56.395Z,17.00
2018-11-22T19:12:28.012Z,15.30
2018-11-22T19:14:59.303Z,15.67
2018-11-22T19:17:30.635Z,15.97
2018-11-22T19:20:08.949Z,17.43
2018-11-22T19:22:33.171Z,15.90
2018-11-22T19:25:03.185Z,15.47
2018-11-22T19:27:33.895Z,14.77
2018-11-22T19:30:04.144Z,14.87
2018-11-22T19:32:34.083Z,16.30
2018-11-22T19:35:04.149Z,15.93
2018-11-22T19:37:34.172Z,13.87
2018-11-22T19:40:04.856Z,15.07
2018-11-22T19:42:34.751Z,16.00
2018-11-22T19:45:05.391Z,15.83
2018-11-22T19:47:36.294Z,15.00
2018-11-22T19:50:09.747Z,13.10
2018-11-22T19:52:39.614Z,13.77
2018-11-22T19:55:12.323Z,13.03
2018-11-22T19:57:43.498Z,14.03
2018-11-22T20:00:14.963Z,13.40
2018-11-22T20:02:45.472Z,14.00
2018-11-22T20:05:16.555Z,14.00
2018-11-22T20:07:47.696Z,14.20
2018-11-22T20:10:22.163Z,13.37
2018-11-22T20:12:52.075Z,13.53
2018-11-22T20:15:21.998Z,14.63
2018-11-22T20:17:52.563Z,13.83
2018-11-22T20:20:23.123Z,16.10
2018-11-22T20:22:53.327Z,15.73
2018-11-22T20:25:23.136Z,15.10
2018-11-22T20:27:54.383Z,13.97
2018-11-22T20:30:27.279Z,14.07
2018-11-22T20:32:57.047Z,14.70
2018-11-22T20:35:26.965Z,16.60
2018-11-22T20:37:57.119Z,15.53
2018-11-22T20:40:27.517Z,15.83
2018-11-22T20:42:57.755Z,14.73
2018-11-22T20:45:28.154Z,13.33
2018-11-22T20:47:59.831Z,14.10
2018-11-22T20:50:30.255Z,13.93
2018-11-22T20:53:00.160Z,13.30
2018-11-22T20:55:31.572Z,12.63
2018-11-22T20:58:03.383Z,12.80
2018-11-22T21:00:34.631Z,14.80
2018-11-22T21:03:04.858Z,14.60
2018-11-22T21:05:35.186Z,13.67
2018-11-22T21:08:04.617Z,14.10
2018-11-22T21:10:34.898Z,15.10
2018-11-22T21:13:05.156Z,14.73
2018-11-22T21:15:35.876Z,13.77
2018-11-22T21:18:07.235Z,15.47
2018-11-22T21:20:39.495Z,14.63
2018-11-22T21:23:09.408Z,14.63
2018-11-22T21:25:39.214Z,16.13
2018-11-22T21:28:09.071Z,15.47
2018-11-22T21:30:39.840Z,17.13
2018-11-22T21:33:09.742Z,16.43
2018-11-22T21:35:39.664Z,15.67
2018-11-22T21:38:09.683Z,15.13
2018-11-22T21:40:39.588Z,15.33
2018-11-22T21:43:09.399Z,14.33
2018-11-22T21:45:39.207Z,14.27
2018-11-22T21:48:09.049Z,15.60
2018-11-22T21:50:38.943Z,13.97
2018-11-22T21:53:08.858Z,13.83
2018-11-22T21:55:38.699Z,14.03
2018-11-22T21:58:08.583Z,13.70
2018-11-22T22:00:40.784Z,14.87
2018-11-22T22:03:11.654Z,14.40
2018-11-22T22:05:41.842Z,13.60
2018-11-22T22:08:11.723Z,13.60
2018-11-22T22:10:41.500Z,13.70
2018-11-22T22:13:11.281Z,13.27
2018-11-22T22:15:41.123Z,13.70
2018-11-22T22:18:10.972Z,14.47
2018-11-22T22:20:40.748Z,14.50
2018-11-22T22:23:13.613Z,13.40
2018-11-22T22:25:40.462Z,11.67
2018-11-22T22:28:10.302Z,12.07
2018-11-22T22:30:40.118Z,11.37
2018-11-22T22:33:09.946Z,10.73
2018-11-22T22:35:39.822Z,11.57
2018-11-22T22:38:09.678Z,11.43
2018-11-22T22:40:39.490Z,12.20
2018-11-22T22:43:09.295Z,10.80
2018-11-22T22:45:39.190Z,10.70
2018-11-22T22:48:09.029Z,10.50
2018-11-22T22:50:38.807Z,10.30
2018-11-22T22:53:08.646Z,9.47
2018-11-22T22:55:38.434Z,9.73
2018-11-22T22:58:08.286Z,10.70
2018-11-22T23:00:40.991Z,11.17
2018-11-22T23:03:10.907Z,10.77
2018-11-22T23:05:40.802Z,10.97
2018-11-22T23:08:10.616Z,11.40
2018-11-22T23:10:40.423Z,11.50
2018-11-22T23:13:10.235Z,11.77
2018-11-22T23:15:40.047Z,11.20
2018-11-22T23:18:09.867Z,11.60
2018-11-22T23:20:39.667Z,11.57
2018-11-22T23:23:09.439Z,11.47
2018-11-22T23:25:39.284Z,12.30
2018-11-22T23:28:09.211Z,11.90
2018-11-22T23:30:39.007Z,11.00
2018-11-22T23:33:09.384Z,10.53
2018-11-22T23:35:39.235Z,11.90
2018-11-22T23:38:09.039Z,11.93
2018-11-22T23:40:38.861Z,10.67
2018-11-22T23:43:08.692Z,10.20
2018-11-22T23:45:38.473Z,10.27
2018-11-22T23:48:08.335Z,11.03
2018-11-22T23:50:38.147Z,11.10
2018-11-22T23:53:07.902Z,10.80
2018-11-22T23:55:37.679Z,10.77
2018-11-22T23:58:07.548Z,10.20
